sensor_id;sensor_type;location;lat;lon;timestamp;temperature;humidity
67890;DHT22;54685;52.082;5.426;2023-02-28T00:01:08;1.00;99.90
67890;DHT22;54685;52.082;5.426;2023-02-28T00:03:35;1.00;99.90
67890;DHT22;54685;52.082;5.426;2023-02-28T00:06:06;1.00;99.90
67890;DHT22;54685;52.082;5.426;2023-02-28T00:08:33;1.00;99.90
67890;DHT22;54685;52.082;5.426;2023-02-28T00:11:03;1.00;99.90
67890;DHT22;54685;52.082;5.426;2023-02-28T00:13:32;1.00;99.90
67890;DHT22;54685;52.082;5.426;2023-02-28T00:16:05;1.10;99.90
67890;DHT22;54685;52.082;5.426;2023-02-28T00:18:32;1.10;99.90
67890;DHT22;54685;52.082;5.426;2023-02-28T00:20:59;1.10;99.90
67890;DHT22;54685;52.082;5.426;2023-02-28T00:23:27;1.20;99.90
67890;DHT22;54685;52.082;5.426;2023-02-28T00:25:54;1.20;99.90
67890;DHT22;54685;52.082;5.426;2023-02-28T00:28:21;1.30;99.90
67890;DHT22;54685;52.082;5.426;2023-02-28T00:30:48;1.30;99.90
67890;DHT22;54685;52.082;5.426;2023-02-28T00:33:15;1.30;99.90
67890;DHT22;54685;52.082;5.426;2023-02-28T00:35:42;1.40;99.90
67890;DHT22;54685;52.082;5.426;2023-02-28T00:38:09;1.40;99.90
67890;DHT22;54685;52.082;5.426;2023-02-28T00:40:36;1.50;99.90
67890;DHT22;54685;52.082;5.426;2023-02-28T00:43:03;1.50;99.90
67890;DHT22;54685;52.082;5.426;2023-02-28T00:45:30;1.50;99.90
67890;DHT22;54685;52.082;5.426;2023-02-28T00:47:57;1.50;99.90
67890;DHT22;54685;52.082;5.426;2023-02-28T00:50:24;1.60;99.90
67890;DHT22;54685;52.082;5.426;2023-02-28T00:52:51;1.60;99.90
67890;DHT22;54685;52.082;5.426;2023-02-28T00:55:19;1.60;99.90
67890;DHT22;54685;52.082;5.426;2023-02-28T00:57:47;1.60;99.90
67890;DHT22;54685;52.082;5.426;2023-02-28T01:00:14;1.70;99.90
67890;DHT22;54685;52.082;5.426;2023-02-28T01:02:42;1.70;99.90
67890;DHT22;54685;52.082;5.426;2023-02-28T01:05:08;1.70;99.90
67890;DHT22;54685;52.082;5.426;2023-02-28T01:07:38;1.70;99.90
67890;DHT22;54685;52.082;5.426;2023-02-28T01:10:05;1.70;99.90
67890;DHT22;54685;52.082;5.426;2023-02-28T01:12:32;1.80;99.90
67890;DHT22;54685;52.082;5.426;2023-02-28T01:14:59;1.80;99.90
67890;DHT22;54685;52.082;5.426;2023-02-28T01:17:25;1.80;99.90
67890;DHT22;54685;52.082;5.426;2023-02-28T01:19:54;1.80;99.90
67890;DHT22;54685;52.082;5.426;2023-02-28T01:22:24;1.80;99.90
67890;DHT22;54685;52.082;5.426;2023-02-28T01:24:51;1.80;99.90
67890;DHT22;54685;52.082;5.426;2023-02-28T01:27:17;1.80;99.90
67890;DHT22;54685;52.082;5.426;2023-02-28T01:29:44;1.80;99.90
67890;DHT22;54685;52.082;5.426;2023-02-28T01:32:11;1.90;99.90
67890;DHT22;54685;52.082;5.426;2023-02-28T01:34:38;1.90;99.90
67890;DHT22;54685;52.082;5.426;2023-02-28T01:37:05;1.90;99.90
67890;DHT22;54685;52.082;5.426;2023-02-28T01:39:33;2.00;99.90
67890;DHT22;54685;52.082;5.426;2023-02-28T01:42:10;2.00;99.90
67890;DHT22;54685;52.082;5.426;2023-02-28T01:44:57;2.00;99.90
67890;DHT22;54685;52.082;5.426;2023-02-28T01:47:38;2.00;99.90
67890;DHT22;54685;52.082;5.426;2023-02-28T01:50:12;2.00;99.90
67890;DHT22;54685;52.082;5.426;2023-02-28T01:52:43;2.00;99.90
67890;DHT22;54685;52.082;5.426;2023-02-28T01:55:11;2.10;99.90
67890;DHT22;54685;52.082;5.426;2023-02-28T01:57:42;2.00;99.90
67890;DHT22;54685;52.082;5.426;2023-02-28T02:00:17;2.10;99.90
67890;DHT22;54685;52.082;5.426;2023-02-28T02:02:49;2.10;99.90
67890;DHT22;54685;52.082;5.426;2023-02-28T02:05:21;2.10;99.90
67890;DHT22;54685;52.082;5.426;2023-02-28T02:07:52;2.10;99.90
67890;DHT22;54685;52.082;5.426;2023-02-28T02:10:24;2.10;99.90
67890;DHT22;54685;52.082;5.426;2023-02-28T02:16:27;2.10;99.90
67890;DHT22;54685;52.082;5.426;2023-02-28T02:35:54;2.20;99.90
67890;DHT22;54685;52.082;5.426;2023-02-28T02:38:50;2.20;99.90
67890;DHT22;54685;52.082;5.426;2023-02-28T02:41:29;2.20;99.90
67890;DHT22;54685;52.082;5.426;2023-02-28T02:44:15;2.30;99.90
67890;DHT22;54685;52.082;5.426;2023-02-28T02:46:45;2.30;99.90
67890;DHT22;54685;52.082;5.426;2023-02-28T02:49:21;2.30;99.90
67890;DHT22;54685;52.082;5.426;2023-02-28T02:51:52;2.30;99.90
67890;DHT22;54685;52.082;5.426;2023-02-28T02:54:24;2.30;99.90
67890;DHT22;54685;52.082;5.426;2023-02-28T02:56:57;2.30;99.90
67890;DHT22;54685;52.082;5.426;2023-02-28T02:59:26;2.30;99.90
67890;DHT22;54685;52.082;5.426;2023-02-28T03:01:59;2.40;99.90
67890;DHT22;54685;52.082;5.426;2023-02-28T03:04:30;2.40;99.90
67890;DHT22;54685;52.082;5.426;2023-02-28T03:06:59;2.40;99.90
67890;DHT22;54685;52.082;5.426;2023-02-28T03:09:28;2.40;99.90
67890;DHT22;54685;52.082;5.426;2023-02-28T03:11:57;2.40;99.90
67890;DHT22;54685;52.082;5.426;2023-02-28T03:16:57;2.40;99.90
67890;DHT22;54685;52.082;5.426;2023-02-28T03:19:34;2.40;99.90
67890;DHT22;54685;52.082;5.426;2023-02-28T03:25:09;2.40;99.90
67890;DHT22;54685;52.082;5.426;2023-02-28T03:30:24;2.40;99.90
67890;DHT22;54685;52.082;5.426;2023-02-28T03:35:34;2.50;99.90
67890;DHT22;54685;52.082;5.426;2023-02-28T03:38:16;2.40;99.90
67890;DHT22;54685;52.082;5.426;2023-02-28T03:40:53;2.50;99.90
67890;DHT22;54685;52.082;5.426;2023-02-28T03:43:30;2.50;99.90
67890;DHT22;54685;52.082;5.426;2023-02-28T03:46:00;2.50;99.90
67890;DHT22;54685;52.082;5.426;2023-02-28T03:49:18;2.50;99.90
67890;DHT22;54685;52.082;5.426;2023-02-28T03:51:27;2.60;99.90
67890;DHT22;54685;52.082;5.426;2023-02-28T03:53:58;2.60;99.90
67890;DHT22;54685;52.082;5.426;2023-02-28T03:59:56;2.60;99.90
67890;DHT22;54685;52.082;5.426;2023-02-28T04:02:24;2.50;99.90
67890;DHT22;54685;52.082;5.426;2023-02-28T04:04:51;2.40;99.90
67890;DHT22;54685;52.082;5.426;2023-02-28T04:07:21;2.40;99.90
67890;DHT22;54685;52.082;5.426;2023-02-28T04:09:47;2.40;99.90
67890;DHT22;54685;52.082;5.426;2023-02-28T04:12:14;2.40;99.90
67890;DHT22;54685;52.082;5.426;2023-02-28T04:14:41;2.40;99.90
67890;DHT22;54685;52.082;5.426;2023-02-28T04:17:07;2.40;99.90
67890;DHT22;54685;52.082;5.426;2023-02-28T04:19:34;2.50;99.90
67890;DHT22;54685;52.082;5.426;2023-02-28T04:22:01;2.50;99.90
67890;DHT22;54685;52.082;5.426;2023-02-28T04:24:28;2.50;99.90
67890;DHT22;54685;52.082;5.426;2023-02-28T04:26:57;2.60;99.90
67890;DHT22;54685;52.082;5.426;2023-02-28T04:29:27;2.60;99.90
67890;DHT22;54685;52.082;5.426;2023-02-28T04:31:55;2.50;99.90
67890;DHT22;54685;52.082;5.426;2023-02-28T04:34:25;2.60;99.90
67890;DHT22;54685;52.082;5.426;2023-02-28T04:36:53;2.60;99.90
67890;DHT22;54685;52.082;5.426;2023-02-28T04:39:44;2.60;99.90
67890;DHT22;54685;52.082;5.426;2023-02-28T04:42:12;2.60;99.90
67890;DHT22;54685;52.082;5.426;2023-02-28T04:44:39;2.60;99.90
67890;DHT22;54685;52.082;5.426;2023-02-28T04:47:09;2.60;99.90
67890;DHT22;54685;52.082;5.426;2023-02-28T04:49:36;2.60;99.90
67890;DHT22;54685;52.082;5.426;2023-02-28T04:52:04;2.60;99.90
67890;DHT22;54685;52.082;5.426;2023-02-28T04:54:31;2.50;99.90
67890;DHT22;54685;52.082;5.426;2023-02-28T04:56:59;2.40;99.90
67890;DHT22;54685;52.082;5.426;2023-02-28T04:59:28;2.40;99.90
67890;DHT22;54685;52.082;5.426;2023-02-28T05:01:55;2.40;99.90
67890;DHT22;54685;52.082;5.426;2023-02-28T05:04:25;2.40;99.90
67890;DHT22;54685;52.082;5.426;2023-02-28T05:06:51;2.40;99.90
67890;DHT22;54685;52.082;5.426;2023-02-28T05:09:18;2.30;99.90
67890;DHT22;54685;52.082;5.426;2023-02-28T05:11:45;2.30;99.90
67890;DHT22;54685;52.082;5.426;2023-02-28T05:14:14;2.30;99.90
67890;DHT22;54685;52.082;5.426;2023-02-28T05:16:43;2.20;99.90
67890;DHT22;54685;52.082;5.426;2023-02-28T05:19:10;2.20;99.90
67890;DHT22;54685;52.082;5.426;2023-02-28T05:21:41;2.20;99.90
67890;DHT22;54685;52.082;5.426;2023-02-28T05:24:15;2.20;99.90
67890;DHT22;54685;52.082;5.426;2023-02-28T05:26:50;2.10;99.90
67890;DHT22;54685;52.082;5.426;2023-02-28T05:29:18;2.10;99.90
67890;DHT22;54685;52.082;5.426;2023-02-28T05:31:48;2.10;99.90
67890;DHT22;54685;52.082;5.426;2023-02-28T05:34:15;2.10;99.90
67890;DHT22;54685;52.082;5.426;2023-02-28T05:36:42;2.10;99.90
67890;DHT22;54685;52.082;5.426;2023-02-28T05:39:09;2.10;99.90
67890;DHT22;54685;52.082;5.426;2023-02-28T05:41:43;2.10;99.90
67890;DHT22;54685;52.082;5.426;2023-02-28T05:44:10;2.10;99.90
67890;DHT22;54685;52.082;5.426;2023-02-28T05:46:38;2.10;99.90
67890;DHT22;54685;52.082;5.426;2023-02-28T05:49:05;2.10;99.90
67890;DHT22;54685;52.082;5.426;2023-02-28T05:51:33;2.10;99.90
67890;DHT22;54685;52.082;5.426;2023-02-28T05:54:03;2.00;99.90
67890;DHT22;54685;52.082;5.426;2023-02-28T05:56:30;2.00;99.90
67890;DHT22;54685;52.082;5.426;2023-02-28T05:58:56;1.90;99.90
67890;DHT22;54685;52.082;5.426;2023-02-28T06:01:40;2.00;99.90
67890;DHT22;54685;52.082;5.426;2023-02-28T06:04:09;1.90;99.90
67890;DHT22;54685;52.082;5.426;2023-02-28T06:06:51;2.00;99.90
67890;DHT22;54685;52.082;5.426;2023-02-28T06:09:18;1.90;99.90
67890;DHT22;54685;52.082;5.426;2023-02-28T06:11:46;1.90;99.90
67890;DHT22;54685;52.082;5.426;2023-02-28T06:14:15;1.90;99.90
67890;DHT22;54685;52.082;5.426;2023-02-28T06:16:43;1.80;99.90
67890;DHT22;54685;52.082;5.426;2023-02-28T06:19:10;1.80;99.90
67890;DHT22;54685;52.082;5.426;2023-02-28T06:21:37;1.70;99.90
67890;DHT22;54685;52.082;5.426;2023-02-28T06:24:04;1.70;99.90
67890;DHT22;54685;52.082;5.426;2023-02-28T06:26:35;1.70;99.90
67890;DHT22;54685;52.082;5.426;2023-02-28T06:29:03;1.70;99.90
67890;DHT22;54685;52.082;5.426;2023-02-28T06:31:30;1.70;99.90
67890;DHT22;54685;52.082;5.426;2023-02-28T06:34:07;1.60;99.90
67890;DHT22;54685;52.082;5.426;2023-02-28T06:36:33;1.60;99.90
67890;DHT22;54685;52.082;5.426;2023-02-28T06:39:00;1.60;99.90
67890;DHT22;54685;52.082;5.426;2023-02-28T06:41:30;1.60;99.90
67890;DHT22;54685;52.082;5.426;2023-02-28T06:44:19;1.60;99.90
67890;DHT22;54685;52.082;5.426;2023-02-28T06:46:46;1.50;99.90
67890;DHT22;54685;52.082;5.426;2023-02-28T06:49:13;1.50;99.90
67890;DHT22;54685;52.082;5.426;2023-02-28T06:51:42;1.50;99.90
67890;DHT22;54685;52.082;5.426;2023-02-28T06:54:12;1.50;99.90
67890;DHT22;54685;52.082;5.426;2023-02-28T06:56:39;1.60;99.90
67890;DHT22;54685;52.082;5.426;2023-02-28T06:59:06;1.50;99.90
67890;DHT22;54685;52.082;5.426;2023-02-28T07:01:33;1.50;99.90
67890;DHT22;54685;52.082;5.426;2023-02-28T07:04:11;1.60;99.90
67890;DHT22;54685;52.082;5.426;2023-02-28T07:06:39;1.50;99.90
67890;DHT22;54685;52.082;5.426;2023-02-28T07:09:06;1.60;99.90
67890;DHT22;54685;52.082;5.426;2023-02-28T07:11:37;1.60;99.90
67890;DHT22;54685;52.082;5.426;2023-02-28T07:14:28;1.50;99.90
67890;DHT22;54685;52.082;5.426;2023-02-28T07:17:01;1.60;99.90
67890;DHT22;54685;52.082;5.426;2023-02-28T07:24:16;1.60;99.90
67890;DHT22;54685;52.082;5.426;2023-02-28T07:26:52;1.60;99.90
67890;DHT22;54685;52.082;5.426;2023-02-28T07:29:19;1.60;99.90
67890;DHT22;54685;52.082;5.426;2023-02-28T07:32:27;1.60;99.90
67890;DHT22;54685;52.082;5.426;2023-02-28T07:35:09;1.70;99.90
67890;DHT22;54685;52.082;5.426;2023-02-28T07:41:02;1.70;99.90
67890;DHT22;54685;52.082;5.426;2023-02-28T07:57:26;2.00;99.90
67890;DHT22;54685;52.082;5.426;2023-02-28T08:00:28;2.20;99.90
67890;DHT22;54685;52.082;5.426;2023-02-28T08:02:59;2.20;99.90
67890;DHT22;54685;52.082;5.426;2023-02-28T08:05:27;2.20;99.90
67890;DHT22;54685;52.082;5.426;2023-02-28T08:07:54;2.30;99.90
67890;DHT22;54685;52.082;5.426;2023-02-28T08:10:21;2.40;99.90
67890;DHT22;54685;52.082;5.426;2023-02-28T08:12:48;2.50;99.90
67890;DHT22;54685;52.082;5.426;2023-02-28T08:15:15;2.60;99.90
67890;DHT22;54685;52.082;5.426;2023-02-28T08:17:42;2.70;99.90
67890;DHT22;54685;52.082;5.426;2023-02-28T08:20:10;2.70;99.90
67890;DHT22;54685;52.082;5.426;2023-02-28T08:22:37;2.80;99.90
67890;DHT22;54685;52.082;5.426;2023-02-28T08:25:05;2.80;99.90
67890;DHT22;54685;52.082;5.426;2023-02-28T08:31:31;2.90;99.90
67890;DHT22;54685;52.082;5.426;2023-02-28T08:37:52;2.90;99.90
67890;DHT22;54685;52.082;5.426;2023-02-28T08:41:18;2.90;99.90
67890;DHT22;54685;52.082;5.426;2023-02-28T08:44:49;2.90;99.90
67890;DHT22;54685;52.082;5.426;2023-02-28T08:47:55;3.00;99.90
67890;DHT22;54685;52.082;5.426;2023-02-28T08:50:22;3.00;99.90
67890;DHT22;54685;52.082;5.426;2023-02-28T08:52:49;3.10;99.90
67890;DHT22;54685;52.082;5.426;2023-02-28T08:55:16;3.10;99.90
67890;DHT22;54685;52.082;5.426;2023-02-28T08:57:46;3.20;99.90
67890;DHT22;54685;52.082;5.426;2023-02-28T09:00:13;3.20;99.90
67890;DHT22;54685;52.082;5.426;2023-02-28T09:02:42;3.30;99.90
67890;DHT22;54685;52.082;5.426;2023-02-28T09:05:10;3.50;99.90
67890;DHT22;54685;52.082;5.426;2023-02-28T09:07:37;3.60;99.90
67890;DHT22;54685;52.082;5.426;2023-02-28T09:10:06;3.80;99.90
67890;DHT22;54685;52.082;5.426;2023-02-28T09:12:34;3.90;99.90
67890;DHT22;54685;52.082;5.426;2023-02-28T09:15:03;4.10;99.90
67890;DHT22;54685;52.082;5.426;2023-02-28T09:17:30;4.20;99.90
67890;DHT22;54685;52.082;5.426;2023-02-28T09:19:57;4.30;99.90
67890;DHT22;54685;52.082;5.426;2023-02-28T09:22:24;4.40;99.90
67890;DHT22;54685;52.082;5.426;2023-02-28T09:24:51;4.40;99.90
67890;DHT22;54685;52.082;5.426;2023-02-28T09:27:17;4.50;99.90
67890;DHT22;54685;52.082;5.426;2023-02-28T09:29:44;4.60;99.90
67890;DHT22;54685;52.082;5.426;2023-02-28T09:32:11;4.70;99.90
67890;DHT22;54685;52.082;5.426;2023-02-28T09:34:40;4.80;95.30
67890;DHT22;54685;52.082;5.426;2023-02-28T09:37:07;4.80;81.30
67890;DHT22;54685;52.082;5.426;2023-02-28T09:39:34;4.90;66.00
67890;DHT22;54685;52.082;5.426;2023-02-28T09:42:02;4.90;75.10
67890;DHT22;54685;52.082;5.426;2023-02-28T09:44:37;4.90;77.90
67890;DHT22;54685;52.082;5.426;2023-02-28T09:49:54;5.00;70.00
67890;DHT22;54685;52.082;5.426;2023-02-28T09:52:29;5.10;88.00
67890;DHT22;54685;52.082;5.426;2023-02-28T09:55:42;5.30;70.50
67890;DHT22;54685;52.082;5.426;2023-02-28T09:58:34;5.60;71.90
67890;DHT22;54685;52.082;5.426;2023-02-28T10:01:11;5.80;64.70
67890;DHT22;54685;52.082;5.426;2023-02-28T10:03:43;5.80;60.10
67890;DHT22;54685;52.082;5.426;2023-02-28T10:06:21;5.90;60.00
67890;DHT22;54685;52.082;5.426;2023-02-28T10:08:58;6.50;61.50
67890;DHT22;54685;52.082;5.426;2023-02-28T10:11:29;7.40;61.40
67890;DHT22;54685;52.082;5.426;2023-02-28T10:14:23;8.30;58.00
67890;DHT22;54685;52.082;5.426;2023-02-28T10:17:03;8.90;53.90
67890;DHT22;54685;52.082;5.426;2023-02-28T10:19:42;9.30;53.30
67890;DHT22;54685;52.082;5.426;2023-02-28T10:22:23;9.80;52.60
67890;DHT22;54685;52.082;5.426;2023-02-28T10:24:55;10.10;47.00
67890;DHT22;54685;52.082;5.426;2023-02-28T10:27:32;10.30;49.20
67890;DHT22;54685;52.082;5.426;2023-02-28T10:30:28;10.70;45.00
67890;DHT22;54685;52.082;5.426;2023-02-28T10:32:56;10.40;44.80
67890;DHT22;54685;52.082;5.426;2023-02-28T10:35:43;10.90;47.00
67890;DHT22;54685;52.082;5.426;2023-02-28T10:38:17;11.50;48.10
67890;DHT22;54685;52.082;5.426;2023-02-28T10:40:46;12.10;47.70
67890;DHT22;54685;52.082;5.426;2023-02-28T10:51:04;12.40;39.40
67890;DHT22;54685;52.082;5.426;2023-02-28T10:53:55;12.60;43.30
67890;DHT22;54685;52.082;5.426;2023-02-28T10:56:29;13.20;42.00
67890;DHT22;54685;52.082;5.426;2023-02-28T11:02:38;14.00;39.40
67890;DHT22;54685;52.082;5.426;2023-02-28T11:05:35;13.70;38.30
67890;DHT22;54685;52.082;5.426;2023-02-28T11:11:04;14.20;42.80
67890;DHT22;54685;52.082;5.426;2023-02-28T11:13:34;14.40;40.40
67890;DHT22;54685;52.082;5.426;2023-02-28T11:16:05;14.60;39.70
67890;DHT22;54685;52.082;5.426;2023-02-28T11:18:41;14.20;38.10
67890;DHT22;54685;52.082;5.426;2023-02-28T11:21:16;14.10;36.70
67890;DHT22;54685;52.082;5.426;2023-02-28T11:23:45;13.90;36.10
67890;DHT22;54685;52.082;5.426;2023-02-28T11:26:16;13.50;36.30
67890;DHT22;54685;52.082;5.426;2023-02-28T11:34:26;14.20;38.40
67890;DHT22;54685;52.082;5.426;2023-02-28T11:37:52;14.30;34.80
67890;DHT22;54685;52.082;5.426;2023-02-28T11:51:03;15.00;33.40
67890;DHT22;54685;52.082;5.426;2023-02-28T12:07:30;15.40;34.80
67890;DHT22;54685;52.082;5.426;2023-02-28T12:18:41;15.20;35.10
67890;DHT22;54685;52.082;5.426;2023-02-28T12:26:40;16.60;36.60
67890;DHT22;54685;52.082;5.426;2023-02-28T12:47:25;17.00;34.20
67890;DHT22;54685;52.082;5.426;2023-02-28T12:50:08;16.40;32.20
67890;DHT22;54685;52.082;5.426;2023-02-28T12:52:53;16.20;32.90
67890;DHT22;54685;52.082;5.426;2023-02-28T12:55:43;16.50;31.30
67890;DHT22;54685;52.082;5.426;2023-02-28T12:58:39;16.50;33.40
67890;DHT22;54685;52.082;5.426;2023-02-28T13:39:54;12.70;35.60
67890;DHT22;54685;52.082;5.426;2023-02-28T13:43:58;12.30;36.80
67890;DHT22;54685;52.082;5.426;2023-02-28T14:06:55;11.40;37.30
67890;DHT22;54685;52.082;5.426;2023-02-28T14:09:29;11.30;38.50
67890;DHT22;54685;52.082;5.426;2023-02-28T14:12:18;11.00;37.60
67890;DHT22;54685;52.082;5.426;2023-02-28T14:17:53;10.70;37.80
67890;DHT22;54685;52.082;5.426;2023-02-28T14:20:21;10.80;40.50
67890;DHT22;54685;52.082;5.426;2023-02-28T14:23:11;10.70;40.80
67890;DHT22;54685;52.082;5.426;2023-02-28T14:36:38;10.30;40.00
67890;DHT22;54685;52.082;5.426;2023-02-28T14:39:26;10.30;39.00
67890;DHT22;54685;52.082;5.426;2023-02-28T14:41:57;10.50;40.20
67890;DHT22;54685;52.082;5.426;2023-02-28T14:44:32;10.70;39.10
67890;DHT22;54685;52.082;5.426;2023-02-28T14:47:02;11.20;39.40
67890;DHT22;54685;52.082;5.426;2023-02-28T14:49:36;11.90;39.30
67890;DHT22;54685;52.082;5.426;2023-02-28T14:52:15;12.50;37.00
67890;DHT22;54685;52.082;5.426;2023-02-28T14:54:44;12.80;36.70
67890;DHT22;54685;52.082;5.426;2023-02-28T14:57:26;13.00;36.00
67890;DHT22;54685;52.082;5.426;2023-02-28T15:00:14;13.60;37.00
67890;DHT22;54685;52.082;5.426;2023-02-28T15:02:41;13.60;35.00
67890;DHT22;54685;52.082;5.426;2023-02-28T15:07:36;12.70;36.90
67890;DHT22;54685;52.082;5.426;2023-02-28T15:10:25;12.00;37.20
67890;DHT22;54685;52.082;5.426;2023-02-28T15:12:56;11.30;36.80
67890;DHT22;54685;52.082;5.426;2023-02-28T15:15:51;10.50;36.90
67890;DHT22;54685;52.082;5.426;2023-02-28T15:18:30;10.20;38.90
67890;DHT22;54685;52.082;5.426;2023-02-28T15:21:12;10.00;40.60
67890;DHT22;54685;52.082;5.426;2023-02-28T15:23:41;9.70;39.30
67890;DHT22;54685;52.082;5.426;2023-02-28T15:26:20;9.70;41.00
67890;DHT22;54685;52.082;5.426;2023-02-28T15:28:52;9.60;41.40
67890;DHT22;54685;52.082;5.426;2023-02-28T15:31:28;9.50;43.60
67890;DHT22;54685;52.082;5.426;2023-02-28T15:34:06;9.50;41.80
67890;DHT22;54685;52.082;5.426;2023-02-28T15:36:34;9.50;47.20
67890;DHT22;54685;52.082;5.426;2023-02-28T15:39:20;9.30;40.90
67890;DHT22;54685;52.082;5.426;2023-02-28T15:41:48;9.10;41.00
67890;DHT22;54685;52.082;5.426;2023-02-28T15:44:26;9.10;41.10
67890;DHT22;54685;52.082;5.426;2023-02-28T15:49:26;9.00;43.40
67890;DHT22;54685;52.082;5.426;2023-02-28T15:51:55;9.00;45.30
67890;DHT22;54685;52.082;5.426;2023-02-28T15:54:28;8.90;43.90
67890;DHT22;54685;52.082;5.426;2023-02-28T15:56:57;8.80;43.60
67890;DHT22;54685;52.082;5.426;2023-02-28T15:59:27;8.80;45.50
67890;DHT22;54685;52.082;5.426;2023-02-28T16:02:14;8.90;44.40
67890;DHT22;54685;52.082;5.426;2023-02-28T16:07:34;8.60;42.10
67890;DHT22;54685;52.082;5.426;2023-02-28T16:10:01;8.60;47.10
67890;DHT22;54685;52.082;5.426;2023-02-28T16:12:30;8.60;42.70
67890;DHT22;54685;52.082;5.426;2023-02-28T16:15:02;8.50;43.30
67890;DHT22;54685;52.082;5.426;2023-02-28T16:17:38;8.30;42.00
67890;DHT22;54685;52.082;5.426;2023-02-28T16:20:23;8.30;43.80
67890;DHT22;54685;52.082;5.426;2023-02-28T16:22:50;8.30;45.90
67890;DHT22;54685;52.082;5.426;2023-02-28T16:25:20;8.20;43.00
67890;DHT22;54685;52.082;5.426;2023-02-28T16:27:50;8.20;44.90
67890;DHT22;54685;52.082;5.426;2023-02-28T16:30:22;8.20;44.20
67890;DHT22;54685;52.082;5.426;2023-02-28T16:32:51;8.20;43.30
67890;DHT22;54685;52.082;5.426;2023-02-28T16:35:19;8.10;43.80
67890;DHT22;54685;52.082;5.426;2023-02-28T16:37:45;8.20;48.20
67890;DHT22;54685;52.082;5.426;2023-02-28T16:40:24;8.00;45.60
67890;DHT22;54685;52.082;5.426;2023-02-28T16:42:58;8.00;46.10
67890;DHT22;54685;52.082;5.426;2023-02-28T16:45:28;8.00;47.70
67890;DHT22;54685;52.082;5.426;2023-02-28T16:47:56;7.80;43.70
67890;DHT22;54685;52.082;5.426;2023-02-28T16:50:29;7.60;44.70
67890;DHT22;54685;52.082;5.426;2023-02-28T16:52:56;7.60;46.40
67890;DHT22;54685;52.082;5.426;2023-02-28T16:55:32;7.50;46.10
67890;DHT22;54685;52.082;5.426;2023-02-28T16:58:04;7.40;45.90
67890;DHT22;54685;52.082;5.426;2023-02-28T17:00:32;7.40;46.20
67890;DHT22;54685;52.082;5.426;2023-02-28T17:02:59;7.30;44.90
67890;DHT22;54685;52.082;5.426;2023-02-28T17:05:27;7.30;46.60
67890;DHT22;54685;52.082;5.426;2023-02-28T17:07:55;7.20;46.80
67890;DHT22;54685;52.082;5.426;2023-02-28T17:10:25;7.20;46.90
67890;DHT22;54685;52.082;5.426;2023-02-28T17:12:54;7.20;47.40
67890;DHT22;54685;52.082;5.426;2023-02-28T17:15:35;7.10;48.40
67890;DHT22;54685;52.082;5.426;2023-02-28T17:18:04;7.10;48.10
67890;DHT22;54685;52.082;5.426;2023-02-28T17:20:34;7.00;50.10
67890;DHT22;54685;52.082;5.426;2023-02-28T17:23:01;7.00;50.40
67890;DHT22;54685;52.082;5.426;2023-02-28T17:25:28;6.90;49.70
67890;DHT22;54685;52.082;5.426;2023-02-28T17:27:55;6.90;50.80
67890;DHT22;54685;52.082;5.426;2023-02-28T17:30:25;6.80;51.40
67890;DHT22;54685;52.082;5.426;2023-02-28T17:33:39;6.70;52.90
67890;DHT22;54685;52.082;5.426;2023-02-28T17:36:41;6.60;53.00
67890;DHT22;54685;52.082;5.426;2023-02-28T17:39:41;6.60;52.60
67890;DHT22;54685;52.082;5.426;2023-02-28T17:42:15;6.40;52.60
67890;DHT22;54685;52.082;5.426;2023-02-28T17:44:45;6.40;53.40
67890;DHT22;54685;52.082;5.426;2023-02-28T17:47:11;6.20;54.20
67890;DHT22;54685;52.082;5.426;2023-02-28T17:49:39;6.10;53.80
67890;DHT22;54685;52.082;5.426;2023-02-28T17:52:18;6.10;53.80
67890;DHT22;54685;52.082;5.426;2023-02-28T17:54:45;5.90;53.60
67890;DHT22;54685;52.082;5.426;2023-02-28T17:57:15;5.80;55.60
67890;DHT22;54685;52.082;5.426;2023-02-28T17:59:43;5.80;55.60
67890;DHT22;54685;52.082;5.426;2023-02-28T18:06:44;5.80;56.40
67890;DHT22;54685;52.082;5.426;2023-02-28T18:09:44;5.60;57.00
67890;DHT22;54685;52.082;5.426;2023-02-28T18:16:19;5.30;57.10
67890;DHT22;54685;52.082;5.426;2023-02-28T18:19:13;5.30;58.50
67890;DHT22;54685;52.082;5.426;2023-02-28T18:30:13;5.10;65.80
67890;DHT22;54685;52.082;5.426;2023-02-28T18:47:55;4.80;79.60
67890;DHT22;54685;52.082;5.426;2023-02-28T18:50:41;4.70;78.80
67890;DHT22;54685;52.082;5.426;2023-02-28T18:57:34;4.60;80.70
67890;DHT22;54685;52.082;5.426;2023-02-28T19:00:02;4.50;88.70
67890;DHT22;54685;52.082;5.426;2023-02-28T19:05:31;4.40;86.70
67890;DHT22;54685;52.082;5.426;2023-02-28T19:08:34;4.40;85.80
67890;DHT22;54685;52.082;5.426;2023-02-28T19:16:10;4.20;92.40
67890;DHT22;54685;52.082;5.426;2023-02-28T19:19:10;4.20;91.90
67890;DHT22;54685;52.082;5.426;2023-02-28T19:33:53;3.90;91.00
67890;DHT22;54685;52.082;5.426;2023-02-28T19:37:18;3.80;90.30
67890;DHT22;54685;52.082;5.426;2023-02-28T19:39:45;3.70;90.60
67890;DHT22;54685;52.082;5.426;2023-02-28T19:42:16;3.70;92.70
67890;DHT22;54685;52.082;5.426;2023-02-28T19:44:43;3.60;94.90
67890;DHT22;54685;52.082;5.426;2023-02-28T19:47:11;3.50;95.30
67890;DHT22;54685;52.082;5.426;2023-02-28T19:49:38;3.50;96.00
67890;DHT22;54685;52.082;5.426;2023-02-28T19:52:05;3.40;94.80
67890;DHT22;54685;52.082;5.426;2023-02-28T19:54:35;3.40;95.50
67890;DHT22;54685;52.082;5.426;2023-02-28T19:57:03;3.30;97.80
67890;DHT22;54685;52.082;5.426;2023-02-28T19:59:29;3.20;99.90
67890;DHT22;54685;52.082;5.426;2023-02-28T20:02:14;3.10;99.00
67890;DHT22;54685;52.082;5.426;2023-02-28T20:04:51;3.10;99.90
67890;DHT22;54685;52.082;5.426;2023-02-28T20:07:28;3.10;99.90
67890;DHT22;54685;52.082;5.426;2023-02-28T20:09:55;3.00;99.90
67890;DHT22;54685;52.082;5.426;2023-02-28T20:12:31;3.00;99.90
67890;DHT22;54685;52.082;5.426;2023-02-28T20:14:58;3.00;99.90
67890;DHT22;54685;52.082;5.426;2023-02-28T20:17:27;2.90;99.90
67890;DHT22;54685;52.082;5.426;2023-02-28T20:19:53;2.90;99.90
67890;DHT22;54685;52.082;5.426;2023-02-28T20:22:20;2.80;99.90
67890;DHT22;54685;52.082;5.426;2023-02-28T20:24:47;2.80;99.90
67890;DHT22;54685;52.082;5.426;2023-02-28T20:27:14;2.70;99.90
67890;DHT22;54685;52.082;5.426;2023-02-28T20:29:41;2.70;99.90
67890;DHT22;54685;52.082;5.426;2023-02-28T20:32:07;2.60;99.90
67890;DHT22;54685;52.082;5.426;2023-02-28T20:34:37;2.50;99.90
67890;DHT22;54685;52.082;5.426;2023-02-28T20:37:07;2.50;99.90
67890;DHT22;54685;52.082;5.426;2023-02-28T20:39:34;2.50;99.90
67890;DHT22;54685;52.082;5.426;2023-02-28T20:42:01;2.40;99.90
67890;DHT22;54685;52.082;5.426;2023-02-28T20:44:31;2.40;99.90
67890;DHT22;54685;52.082;5.426;2023-02-28T20:46:58;2.30;99.90
67890;DHT22;54685;52.082;5.426;2023-02-28T20:49:24;2.30;99.90
67890;DHT22;54685;52.082;5.426;2023-02-28T20:51:51;2.30;99.90
67890;DHT22;54685;52.082;5.426;2023-02-28T20:54:19;2.30;99.90
67890;DHT22;54685;52.082;5.426;2023-02-28T20:56:47;2.20;99.90
67890;DHT22;54685;52.082;5.426;2023-02-28T20:59:14;2.20;99.90
67890;DHT22;54685;52.082;5.426;2023-02-28T21:01:40;2.10;99.90
67890;DHT22;54685;52.082;5.426;2023-02-28T21:04:13;2.00;99.90